sensor_id;sensor_type;location;lat;lon;timestamp;P1;durP1;ratioP1;P2;durP2;ratioP2
1436;SDS011;712;51.026;13.792;2022-08-19T00:01:33;12.70;;;11.70;;
1436;SDS011;712;51.026;13.792;2022-08-19T00:03:59;14.88;;;13.55;;
1436;SDS011;712;51.026;13.792;2022-08-19T00:06:25;14.57;;;13.52;;
1436;SDS011;712;51.026;13.792;2022-08-19T00:08:50;16.00;;;14.60;;
1436;SDS011;712;51.026;13.792;2022-08-19T00:11:16;15.10;;;13.70;;
1436;SDS011;712;51.026;13.792;2022-08-19T00:13:41;13.47;;;12.37;;
1436;SDS011;712;51.026;13.792;2022-08-19T00:16:06;14.23;;;12.93;;
1436;SDS011;712;51.026;13.792;2022-08-19T00:18:32;15.43;;;14.13;;
1436;SDS011;712;51.026;13.792;2022-08-19T00:20:57;13.07;;;11.98;;
1436;SDS011;712;51.026;13.792;2022-08-19T00:23:24;16.30;;;14.90;;
1436;SDS011;712;51.026;13.792;2022-08-19T00:25:49;16.50;;;15.10;;
1436;SDS011;712;51.026;13.792;2022-08-19T00:28:14;17.83;;;16.23;;
1436;SDS011;712;51.026;13.792;2022-08-19T00:30:39;16.00;;;14.60;;
1436;SDS011;712;51.026;13.792;2022-08-19T00:33:05;16.10;;;14.70;;
1436;SDS011;712;51.026;13.792;2022-08-19T00:35:30;16.30;;;14.87;;
1436;SDS011;712;51.026;13.792;2022-08-19T00:37:56;16.90;;;15.40;;
1436;SDS011;712;51.026;13.792;2022-08-19T00:40:21;14.90;;;13.50;;
1436;SDS011;712;51.026;13.792;2022-08-19T00:42:46;16.30;;;14.80;;
1436;SDS011;712;51.026;13.792;2022-08-19T00:45:13;17.70;;;16.08;;
1436;SDS011;712;51.026;13.792;2022-08-19T00:47:39;14.80;;;13.50;;
1436;SDS011;712;51.026;13.792;2022-08-19T00:50:04;16.90;;;15.40;;
1436;SDS011;712;51.026;13.792;2022-08-19T00:52:31;15.20;;;13.80;;
1436;SDS011;712;51.026;13.792;2022-08-19T00:54:57;16.02;;;14.52;;
1436;SDS011;712;51.026;13.792;2022-08-19T00:57:27;17.90;;;16.30;;
1436;SDS011;712;51.026;13.792;2022-08-19T00:59:53;15.88;;;14.48;;
1436;SDS011;712;51.026;13.792;2022-08-19T01:02:19;17.50;;;15.90;;
1436;SDS011;712;51.026;13.792;2022-08-19T01:04:44;18.40;;;16.80;;
1436;SDS011;712;51.026;13.792;2022-08-19T01:07:09;15.45;;;14.15;;
1436;SDS011;712;51.026;13.792;2022-08-19T01:09:34;17.85;;;16.25;;
1436;SDS011;712;51.026;13.792;2022-08-19T01:11:59;17.88;;;16.38;;
1436;SDS011;712;51.026;13.792;2022-08-19T01:14:25;16.20;;;14.80;;
1436;SDS011;712;51.026;13.792;2022-08-19T01:16:50;17.70;;;16.33;;
1436;SDS011;712;51.026;13.792;2022-08-19T01:19:22;19.50;;;17.90;;
1436;SDS011;712;51.026;13.792;2022-08-19T01:21:52;17.85;;;16.45;;
1436;SDS011;712;51.026;13.792;2022-08-19T01:24:20;17.00;;;15.50;;
1436;SDS011;712;51.026;13.792;2022-08-19T01:26:46;17.40;;;15.90;;
1436;SDS011;712;51.026;13.792;2022-08-19T01:29:12;16.77;;;15.27;;
1436;SDS011;712;51.026;13.792;2022-08-19T01:31:37;16.42;;;14.93;;
1436;SDS011;712;51.026;13.792;2022-08-19T01:34:04;16.08;;;14.68;;
1436;SDS011;712;51.026;13.792;2022-08-19T01:36:37;17.13;;;15.43;;
1436;SDS011;712;51.026;13.792;2022-08-19T01:39:04;16.25;;;14.85;;
1436;SDS011;712;51.026;13.792;2022-08-19T01:41:30;17.95;;;16.35;;
1436;SDS011;712;51.026;13.792;2022-08-19T01:43:55;19.30;;;17.50;;
1436;SDS011;712;51.026;13.792;2022-08-19T01:46:21;17.50;;;15.90;;
1436;SDS011;712;51.026;13.792;2022-08-19T01:48:46;20.23;;;18.20;;
1436;SDS011;712;51.026;13.792;2022-08-19T01:51:11;16.80;;;15.30;;
1436;SDS011;712;51.026;13.792;2022-08-19T01:53:37;17.00;;;15.50;;
1436;SDS011;712;51.026;13.792;2022-08-19T01:56:03;16.93;;;15.43;;
1436;SDS011;712;51.026;13.792;2022-08-19T01:58:29;16.52;;;15.13;;
1436;SDS011;712;51.026;13.792;2022-08-19T02:00:56;20.20;;;18.30;;
1436;SDS011;712;51.026;13.792;2022-08-19T02:03:21;18.90;;;17.30;;
1436;SDS011;712;51.026;13.792;2022-08-19T02:05:47;19.40;;;17.60;;
1436;SDS011;712;51.026;13.792;2022-08-19T02:08:13;18.45;;;16.75;;
1436;SDS011;712;51.026;13.792;2022-08-19T02:10:42;17.45;;;15.95;;
1436;SDS011;712;51.026;13.792;2022-08-19T02:13:08;19.88;;;18.08;;
1436;SDS011;712;51.026;13.792;2022-08-19T02:15:33;17.40;;;15.90;;
1436;SDS011;712;51.026;13.792;2022-08-19T02:17:58;17.97;;;16.37;;
1436;SDS011;712;51.026;13.792;2022-08-19T02:20:24;18.60;;;17.00;;
1436;SDS011;712;51.026;13.792;2022-08-19T02:22:49;17.23;;;15.70;;
1436;SDS011;712;51.026;13.792;2022-08-19T02:25:14;17.60;;;16.20;;
1436;SDS011;712;51.026;13.792;2022-08-19T02:27:40;19.10;;;17.50;;
1436;SDS011;712;51.026;13.792;2022-08-19T02:30:06;18.00;;;16.30;;
1436;SDS011;712;51.026;13.792;2022-08-19T02:32:32;17.88;;;16.27;;
1436;SDS011;712;51.026;13.792;2022-08-19T02:34:58;17.80;;;16.30;;
1436;SDS011;712;51.026;13.792;2022-08-19T02:37:23;17.50;;;15.90;;
1436;SDS011;712;51.026;13.792;2022-08-19T02:40:07;16.73;;;15.15;;
1436;SDS011;712;51.026;13.792;2022-08-19T02:42:32;17.87;;;16.27;;
1436;SDS011;712;51.026;13.792;2022-08-19T02:44:57;18.27;;;16.67;;
1436;SDS011;712;51.026;13.792;2022-08-19T02:47:23;18.02;;;16.42;;
1436;SDS011;712;51.026;13.792;2022-08-19T02:49:48;19.10;;;17.38;;
1436;SDS011;712;51.026;13.792;2022-08-19T02:52:14;17.83;;;16.30;;
1436;SDS011;712;51.026;13.792;2022-08-19T02:54:39;19.30;;;17.60;;
1436;SDS011;712;51.026;13.792;2022-08-19T02:57:05;17.63;;;16.13;;
1436;SDS011;712;51.026;13.792;2022-08-19T02:59:31;19.15;;;17.45;;
1436;SDS011;712;51.026;13.792;2022-08-19T03:01:56;17.60;;;16.00;;
1436;SDS011;712;51.026;13.792;2022-08-19T03:04:21;18.60;;;16.90;;
1436;SDS011;712;51.026;13.792;2022-08-19T03:06:47;16.20;;;14.90;;
1436;SDS011;712;51.026;13.792;2022-08-19T03:09:13;20.00;;;18.30;;
1436;SDS011;712;51.026;13.792;2022-08-19T03:11:39;17.00;;;15.60;;
1436;SDS011;712;51.026;13.792;2022-08-19T03:14:05;18.20;;;16.55;;
1436;SDS011;712;51.026;13.792;2022-08-19T03:16:34;20.13;;;18.42;;
1436;SDS011;712;51.026;13.792;2022-08-19T03:18:59;19.98;;;18.35;;
1436;SDS011;712;51.026;13.792;2022-08-19T03:21:25;18.40;;;16.90;;
1436;SDS011;712;51.026;13.792;2022-08-19T03:23:54;18.48;;;16.98;;
1436;SDS011;712;51.026;13.792;2022-08-19T03:26:19;16.83;;;15.43;;
1436;SDS011;712;51.026;13.792;2022-08-19T03:28:45;17.53;;;16.03;;
1436;SDS011;712;51.026;13.792;2022-08-19T03:31:15;20.30;;;18.40;;
1436;SDS011;712;51.026;13.792;2022-08-19T03:33:40;19.15;;;17.45;;
1436;SDS011;712;51.026;13.792;2022-08-19T03:38:32;20.50;;;18.70;;
1436;SDS011;712;51.026;13.792;2022-08-19T03:40:57;18.17;;;16.47;;
1436;SDS011;712;51.026;13.792;2022-08-19T03:43:22;19.90;;;18.00;;
1436;SDS011;712;51.026;13.792;2022-08-19T03:45:48;20.13;;;18.40;;
1436;SDS011;712;51.026;13.792;2022-08-19T03:48:13;19.53;;;17.93;;
1436;SDS011;712;51.026;13.792;2022-08-19T03:50:39;21.23;;;19.33;;
1436;SDS011;712;51.026;13.792;2022-08-19T03:53:05;18.80;;;17.10;;
1436;SDS011;712;51.026;13.792;2022-08-19T03:55:31;18.35;;;16.85;;
1436;SDS011;712;51.026;13.792;2022-08-19T03:57:56;18.60;;;16.90;;
1436;SDS011;712;51.026;13.792;2022-08-19T04:00:21;19.50;;;17.80;;
1436;SDS011;712;51.026;13.792;2022-08-19T04:02:46;20.53;;;18.57;;
1436;SDS011;712;51.026;13.792;2022-08-19T04:05:11;18.70;;;17.20;;
1436;SDS011;712;51.026;13.792;2022-08-19T04:07:38;19.02;;;17.42;;
1436;SDS011;712;51.026;13.792;2022-08-19T04:10:04;20.20;;;18.50;;
1436;SDS011;712;51.026;13.792;2022-08-19T04:12:29;20.10;;;18.10;;
1436;SDS011;712;51.026;13.792;2022-08-19T04:14:54;17.15;;;15.75;;
1436;SDS011;712;51.026;13.792;2022-08-19T04:17:19;17.52;;;16.13;;
1436;SDS011;712;51.026;13.792;2022-08-19T04:19:44;17.67;;;16.08;;
1436;SDS011;712;51.026;13.792;2022-08-19T04:22:09;18.85;;;17.13;;
1436;SDS011;712;51.026;13.792;2022-08-19T04:24:36;18.13;;;16.50;;
1436;SDS011;712;51.026;13.792;2022-08-19T04:27:02;19.90;;;18.20;;
1436;SDS011;712;51.026;13.792;2022-08-19T04:29:27;20.07;;;18.17;;
1436;SDS011;712;51.026;13.792;2022-08-19T04:31:55;18.52;;;16.92;;
1436;SDS011;712;51.026;13.792;2022-08-19T04:34:21;20.17;;;18.37;;
1436;SDS011;712;51.026;13.792;2022-08-19T04:36:47;19.75;;;18.00;;
1436;SDS011;712;51.026;13.792;2022-08-19T04:39:16;19.43;;;17.73;;
1436;SDS011;712;51.026;13.792;2022-08-19T04:41:41;19.73;;;17.92;;
1436;SDS011;712;51.026;13.792;2022-08-19T04:44:25;17.92;;;16.33;;
1436;SDS011;712;51.026;13.792;2022-08-19T04:46:50;18.20;;;16.60;;
1436;SDS011;712;51.026;13.792;2022-08-19T04:49:16;20.88;;;19.08;;
1436;SDS011;712;51.026;13.792;2022-08-19T04:51:43;20.83;;;18.95;;
1436;SDS011;712;51.026;13.792;2022-08-19T04:54:08;20.25;;;18.48;;
1436;SDS011;712;51.026;13.792;2022-08-19T04:56:33;18.37;;;16.67;;
1436;SDS011;712;51.026;13.792;2022-08-19T04:58:59;21.47;;;19.47;;
1436;SDS011;712;51.026;13.792;2022-08-19T05:01:28;20.70;;;18.70;;
1436;SDS011;712;51.026;13.792;2022-08-19T05:03:54;20.60;;;18.60;;
1436;SDS011;712;51.026;13.792;2022-08-19T05:06:21;18.90;;;17.30;;
1436;SDS011;712;51.026;13.792;2022-08-19T05:08:46;20.33;;;18.42;;
1436;SDS011;712;51.026;13.792;2022-08-19T05:13:40;21.23;;;19.27;;
1436;SDS011;712;51.026;13.792;2022-08-19T05:16:05;19.88;;;18.17;;
1436;SDS011;712;51.026;13.792;2022-08-19T05:18:31;21.63;;;19.63;;
1436;SDS011;712;51.026;13.792;2022-08-19T05:21:15;19.65;;;17.85;;
1436;SDS011;712;51.026;13.792;2022-08-19T05:24:00;18.45;;;16.85;;
1436;SDS011;712;51.026;13.792;2022-08-19T05:26:25;19.25;;;17.38;;
1436;SDS011;712;51.026;13.792;2022-08-19T05:28:53;21.80;;;19.80;;
1436;SDS011;712;51.026;13.792;2022-08-19T05:31:19;19.93;;;18.03;;
1436;SDS011;712;51.026;13.792;2022-08-19T05:33:44;21.33;;;19.33;;
1436;SDS011;712;51.026;13.792;2022-08-19T05:36:09;21.20;;;19.20;;
1436;SDS011;712;51.026;13.792;2022-08-19T05:38:34;21.23;;;19.23;;
1436;SDS011;712;51.026;13.792;2022-08-19T05:41:00;22.37;;;20.07;;
1436;SDS011;712;51.026;13.792;2022-08-19T05:43:25;21.08;;;19.17;;
1436;SDS011;712;51.026;13.792;2022-08-19T05:45:51;21.13;;;19.13;;
1436;SDS011;712;51.026;13.792;2022-08-19T05:48:16;21.00;;;19.00;;
1436;SDS011;712;51.026;13.792;2022-08-19T05:50:45;20.95;;;19.05;;
1436;SDS011;712;51.026;13.792;2022-08-19T05:53:10;20.52;;;18.42;;
1436;SDS011;712;51.026;13.792;2022-08-19T05:55:35;21.65;;;19.65;;
1436;SDS011;712;51.026;13.792;2022-08-19T05:58:02;19.75;;;17.95;;
1436;SDS011;712;51.026;13.792;2022-08-19T06:00:28;22.27;;;20.07;;
1436;SDS011;712;51.026;13.792;2022-08-19T06:02:56;22.63;;;20.38;;
1436;SDS011;712;51.026;13.792;2022-08-19T06:05:21;19.70;;;17.90;;
1436;SDS011;712;51.026;13.792;2022-08-19T06:07:46;19.30;;;17.50;;
1436;SDS011;712;51.026;13.792;2022-08-19T06:10:11;18.70;;;16.90;;
1436;SDS011;712;51.026;13.792;2022-08-19T06:12:37;19.20;;;17.40;;
1436;SDS011;712;51.026;13.792;2022-08-19T06:15:05;19.50;;;17.70;;
1436;SDS011;712;51.026;13.792;2022-08-19T06:17:30;17.98;;;16.27;;
1436;SDS011;712;51.026;13.792;2022-08-19T06:19:56;18.90;;;17.10;;
1436;SDS011;712;51.026;13.792;2022-08-19T06:22:21;18.40;;;16.80;;
1436;SDS011;712;51.026;13.792;2022-08-19T06:24:46;18.00;;;16.40;;
1436;SDS011;712;51.026;13.792;2022-08-19T06:27:11;16.88;;;15.38;;
1436;SDS011;712;51.026;13.792;2022-08-19T06:29:36;16.00;;;14.57;;
1436;SDS011;712;51.026;13.792;2022-08-19T06:32:02;15.40;;;13.90;;
1436;SDS011;712;51.026;13.792;2022-08-19T06:34:28;15.60;;;14.20;;
1436;SDS011;712;51.026;13.792;2022-08-19T06:36:54;15.00;;;13.70;;
1436;SDS011;712;51.026;13.792;2022-08-19T06:39:24;14.43;;;13.17;;
1436;SDS011;712;51.026;13.792;2022-08-19T06:41:50;14.05;;;12.75;;
1436;SDS011;712;51.026;13.792;2022-08-19T06:44:16;14.10;;;12.80;;
1436;SDS011;712;51.026;13.792;2022-08-19T06:46:41;14.00;;;12.60;;
1436;SDS011;712;51.026;13.792;2022-08-19T06:49:07;13.95;;;12.55;;
1436;SDS011;712;51.026;13.792;2022-08-19T06:51:35;12.60;;;11.50;;
1436;SDS011;712;51.026;13.792;2022-08-19T06:54:00;13.50;;;12.40;;
1436;SDS011;712;51.026;13.792;2022-08-19T06:56:28;13.20;;;12.00;;
1436;SDS011;712;51.026;13.792;2022-08-19T06:58:58;14.00;;;12.70;;
1436;SDS011;712;51.026;13.792;2022-08-19T07:01:23;13.30;;;12.10;;
1436;SDS011;712;51.026;13.792;2022-08-19T07:03:48;14.25;;;12.85;;
1436;SDS011;712;51.026;13.792;2022-08-19T07:06:14;14.03;;;12.80;;
1436;SDS011;712;51.026;13.792;2022-08-19T07:08:42;14.25;;;12.95;;
1436;SDS011;712;51.026;13.792;2022-08-19T07:11:08;13.47;;;12.27;;
1436;SDS011;712;51.026;13.792;2022-08-19T07:13:34;13.68;;;12.27;;
1436;SDS011;712;51.026;13.792;2022-08-19T07:16:05;13.00;;;11.80;;
1436;SDS011;712;51.026;13.792;2022-08-19T07:18:31;14.18;;;12.77;;
1436;SDS011;712;51.026;13.792;2022-08-19T07:21:08;13.88;;;12.70;;
1436;SDS011;712;51.026;13.792;2022-08-19T07:23:34;15.60;;;14.23;;
1436;SDS011;712;51.026;13.792;2022-08-19T07:26:06;14.30;;;12.80;;
1436;SDS011;712;51.026;13.792;2022-08-19T07:28:31;14.20;;;12.80;;
1436;SDS011;712;51.026;13.792;2022-08-19T07:30:56;14.00;;;12.70;;
1436;SDS011;712;51.026;13.792;2022-08-19T07:33:21;13.63;;;12.33;;
1436;SDS011;712;51.026;13.792;2022-08-19T07:35:46;14.43;;;12.93;;
1436;SDS011;712;51.026;13.792;2022-08-19T07:38:11;13.40;;;12.20;;
1436;SDS011;712;51.026;13.792;2022-08-19T07:40:36;14.15;;;12.75;;
1436;SDS011;712;51.026;13.792;2022-08-19T07:43:02;14.90;;;13.50;;
1436;SDS011;712;51.026;13.792;2022-08-19T07:45:27;14.20;;;12.70;;
1436;SDS011;712;51.026;13.792;2022-08-19T07:47:53;18.20;;;15.57;;
1436;SDS011;712;51.026;13.792;2022-08-19T07:50:19;15.73;;;14.23;;
1436;SDS011;712;51.026;13.792;2022-08-19T07:52:45;17.38;;;15.70;;
1436;SDS011;712;51.026;13.792;2022-08-19T07:55:10;16.20;;;14.70;;
1436;SDS011;712;51.026;13.792;2022-08-19T07:57:35;15.50;;;14.00;;
1436;SDS011;712;51.026;13.792;2022-08-19T08:00:00;15.25;;;13.85;;
1436;SDS011;712;51.026;13.792;2022-08-19T08:02:26;15.13;;;13.63;;
1436;SDS011;712;51.026;13.792;2022-08-19T08:04:51;16.47;;;14.77;;
1436;SDS011;712;51.026;13.792;2022-08-19T08:07:34;16.30;;;14.70;;
1436;SDS011;712;51.026;13.792;2022-08-19T08:10:18;18.00;;;16.30;;
1436;SDS011;712;51.026;13.792;2022-08-19T08:12:44;18.35;;;16.55;;
1436;SDS011;712;51.026;13.792;2022-08-19T08:15:10;18.10;;;16.40;;
1436;SDS011;712;51.026;13.792;2022-08-19T08:17:36;16.98;;;15.38;;
1436;SDS011;712;51.026;13.792;2022-08-19T08:20:03;15.40;;;13.93;;
1436;SDS011;712;51.026;13.792;2022-08-19T08:22:31;15.43;;;13.90;;
1436;SDS011;712;51.026;13.792;2022-08-19T08:25:16;17.00;;;15.40;;
1436;SDS011;712;51.026;13.792;2022-08-19T08:27:43;15.10;;;13.70;;
1436;SDS011;712;51.026;13.792;2022-08-19T08:30:09;16.98;;;15.38;;
1436;SDS011;712;51.026;13.792;2022-08-19T08:32:38;16.10;;;14.50;;
1436;SDS011;712;51.026;13.792;2022-08-19T08:35:04;15.05;;;13.65;;
1436;SDS011;712;51.026;13.792;2022-08-19T08:37:30;15.30;;;14.00;;
1436;SDS011;712;51.026;13.792;2022-08-19T08:39:55;15.47;;;14.00;;
1436;SDS011;712;51.026;13.792;2022-08-19T08:42:25;13.93;;;12.63;;
1436;SDS011;712;51.026;13.792;2022-08-19T08:47:18;15.43;;;14.03;;
1436;SDS011;712;51.026;13.792;2022-08-19T08:49:48;17.92;;;16.13;;
1436;SDS011;712;51.026;13.792;2022-08-19T08:52:18;17.35;;;15.85;;
1436;SDS011;712;51.026;13.792;2022-08-19T08:54:46;16.23;;;14.82;;
1436;SDS011;712;51.026;13.792;2022-08-19T08:57:15;16.40;;;14.80;;
1436;SDS011;712;51.026;13.792;2022-08-19T08:59:43;13.52;;;12.23;;
1436;SDS011;712;51.026;13.792;2022-08-19T09:02:10;13.30;;;12.20;;
1436;SDS011;712;51.026;13.792;2022-08-19T09:04:35;12.57;;;11.48;;
1436;SDS011;712;51.026;13.792;2022-08-19T09:09:45;12.98;;;11.70;;
1436;SDS011;712;51.026;13.792;2022-08-19T09:12:16;12.77;;;11.70;;
1436;SDS011;712;51.026;13.792;2022-08-19T09:14:47;14.30;;;13.00;;
1436;SDS011;712;51.026;13.792;2022-08-19T09:17:14;11.50;;;10.50;;
1436;SDS011;712;51.026;13.792;2022-08-19T09:19:50;12.25;;;11.15;;
1436;SDS011;712;51.026;13.792;2022-08-19T09:22:15;14.40;;;13.10;;
1436;SDS011;712;51.026;13.792;2022-08-19T09:24:40;13.03;;;11.83;;
1436;SDS011;712;51.026;13.792;2022-08-19T09:27:06;12.98;;;11.73;;
1436;SDS011;712;51.026;13.792;2022-08-19T09:29:31;12.30;;;11.20;;
1436;SDS011;712;51.026;13.792;2022-08-19T09:31:56;13.10;;;12.10;;
1436;SDS011;712;51.026;13.792;2022-08-19T09:34:21;12.23;;;11.23;;
1436;SDS011;712;51.026;13.792;2022-08-19T09:36:46;12.03;;;11.13;;
1436;SDS011;712;51.026;13.792;2022-08-19T09:39:12;13.00;;;11.90;;
1436;SDS011;712;51.026;13.792;2022-08-19T09:41:37;11.87;;;10.87;;
1436;SDS011;712;51.026;13.792;2022-08-19T09:44:02;12.00;;;11.00;;
1436;SDS011;712;51.026;13.792;2022-08-19T09:46:28;11.50;;;10.60;;
1436;SDS011;712;51.026;13.792;2022-08-19T09:48:53;11.57;;;10.68;;
1436;SDS011;712;51.026;13.792;2022-08-19T09:51:20;14.37;;;13.17;;
1436;SDS011;712;51.026;13.792;2022-08-19T09:53:46;13.52;;;12.30;;
1436;SDS011;712;51.026;13.792;2022-08-19T09:56:12;13.10;;;12.00;;
1436;SDS011;712;51.026;13.792;2022-08-19T09:58:38;14.20;;;13.10;;
1436;SDS011;712;51.026;13.792;2022-08-19T10:01:04;13.90;;;12.70;;
1436;SDS011;712;51.026;13.792;2022-08-19T10:03:30;14.30;;;13.15;;
1436;SDS011;712;51.026;13.792;2022-08-19T10:06:00;12.55;;;11.50;;
1436;SDS011;712;51.026;13.792;2022-08-19T10:08:28;15.45;;;14.15;;
1436;SDS011;712;51.026;13.792;2022-08-19T10:10:53;13.32;;;12.23;;
1436;SDS011;712;51.026;13.792;2022-08-19T10:13:20;15.27;;;14.02;;
1436;SDS011;712;51.026;13.792;2022-08-19T10:15:50;21.85;;;19.45;;
1436;SDS011;712;51.026;13.792;2022-08-19T10:18:15;16.17;;;14.77;;
1436;SDS011;712;51.026;13.792;2022-08-19T10:20:42;13.20;;;12.10;;
1436;SDS011;712;51.026;13.792;2022-08-19T10:23:08;11.30;;;10.30;;
1436;SDS011;712;51.026;13.792;2022-08-19T10:25:33;12.90;;;11.90;;
1436;SDS011;712;51.026;13.792;2022-08-19T10:27:59;13.18;;;11.98;;
1436;SDS011;712;51.026;13.792;2022-08-19T10:30:24;12.70;;;11.60;;
1436;SDS011;712;51.026;13.792;2022-08-19T10:32:50;11.30;;;10.40;;
1436;SDS011;712;51.026;13.792;2022-08-19T10:35:15;10.60;;;9.60;;
1436;SDS011;712;51.026;13.792;2022-08-19T10:37:40;11.40;;;10.40;;
1436;SDS011;712;51.026;13.792;2022-08-19T10:40:06;9.70;;;8.90;;
1436;SDS011;712;51.026;13.792;2022-08-19T10:42:32;9.73;;;9.02;;
1436;SDS011;712;51.026;13.792;2022-08-19T10:44:57;9.63;;;8.93;;
1436;SDS011;712;51.026;13.792;2022-08-19T10:47:23;9.52;;;8.82;;
1436;SDS011;712;51.026;13.792;2022-08-19T10:49:48;9.85;;;9.05;;
1436;SDS011;712;51.026;13.792;2022-08-19T10:52:32;9.73;;;9.02;;
1436;SDS011;712;51.026;13.792;2022-08-19T10:55:01;9.50;;;8.80;;
1436;SDS011;712;51.026;13.792;2022-08-19T10:57:45;9.25;;;8.55;;
1436;SDS011;712;51.026;13.792;2022-08-19T11:00:10;8.87;;;8.17;;
1436;SDS011;712;51.026;13.792;2022-08-19T11:02:36;8.10;;;7.50;;
1436;SDS011;712;51.026;13.792;2022-08-19T11:05:01;8.30;;;7.70;;
1436;SDS011;712;51.026;13.792;2022-08-19T11:07:26;7.30;;;6.80;;
1436;SDS011;712;51.026;13.792;2022-08-19T11:09:51;7.70;;;7.10;;
1436;SDS011;712;51.026;13.792;2022-08-19T11:12:16;6.80;;;6.30;;
1436;SDS011;712;51.026;13.792;2022-08-19T11:14:42;7.23;;;6.73;;
1436;SDS011;712;51.026;13.792;2022-08-19T11:17:07;7.40;;;6.90;;
1436;SDS011;712;51.026;13.792;2022-08-19T11:19:32;7.05;;;6.55;;
1436;SDS011;712;51.026;13.792;2022-08-19T11:21:58;7.20;;;6.70;;
1436;SDS011;712;51.026;13.792;2022-08-19T11:24:27;7.20;;;6.70;;
1436;SDS011;712;51.026;13.792;2022-08-19T11:26:54;7.50;;;6.90;;
1436;SDS011;712;51.026;13.792;2022-08-19T11:29:23;7.60;;;7.10;;
1436;SDS011;712;51.026;13.792;2022-08-19T11:31:52;8.95;;;8.15;;
1436;SDS011;712;51.026;13.792;2022-08-19T11:34:19;9.52;;;8.80;;
1436;SDS011;712;51.026;13.792;2022-08-19T11:36:46;8.07;;;7.47;;
1436;SDS011;712;51.026;13.792;2022-08-19T11:39:13;8.30;;;7.70;;
1436;SDS011;712;51.026;13.792;2022-08-19T11:41:38;8.13;;;7.53;;
1436;SDS011;712;51.026;13.792;2022-08-19T11:44:04;9.97;;;9.20;;
1436;SDS011;712;51.026;13.792;2022-08-19T11:46:29;8.53;;;7.93;;
1436;SDS011;712;51.026;13.792;2022-08-19T11:48:55;9.65;;;8.95;;
1436;SDS011;712;51.026;13.792;2022-08-19T11:51:21;10.30;;;9.50;;
1436;SDS011;712;51.026;13.792;2022-08-19T11:53:47;11.00;;;10.02;;
1436;SDS011;712;51.026;13.792;2022-08-19T11:56:12;9.70;;;9.00;;
1436;SDS011;712;51.026;13.792;2022-08-19T11:58:38;9.95;;;9.15;;
1436;SDS011;712;51.026;13.792;2022-08-19T12:01:07;10.68;;;9.77;;
1436;SDS011;712;51.026;13.792;2022-08-19T12:03:32;11.45;;;10.55;;
1436;SDS011;712;51.026;13.792;2022-08-19T12:05:58;10.45;;;9.65;;
1436;SDS011;712;51.026;13.792;2022-08-19T12:08:27;10.48;;;9.70;;
1436;SDS011;712;51.026;13.792;2022-08-19T12:10:52;10.82;;;9.82;;
1436;SDS011;712;51.026;13.792;2022-08-19T12:13:17;11.45;;;10.55;;
1436;SDS011;712;51.026;13.792;2022-08-19T12:15:44;11.60;;;10.60;;
1436;SDS011;712;51.026;13.792;2022-08-19T12:18:10;12.70;;;11.60;;
1436;SDS011;712;51.026;13.792;2022-08-19T12:20:36;12.80;;;11.70;;
1436;SDS011;712;51.026;13.792;2022-08-19T12:23:02;12.88;;;11.77;;
1436;SDS011;712;51.026;13.792;2022-08-19T12:25:27;12.57;;;11.57;;
1436;SDS011;712;51.026;13.792;2022-08-19T12:27:52;13.73;;;12.53;;
1436;SDS011;712;51.026;13.792;2022-08-19T12:30:17;14.70;;;13.40;;
1436;SDS011;712;51.026;13.792;2022-08-19T12:32:43;16.40;;;15.00;;
1436;SDS011;712;51.026;13.792;2022-08-19T12:35:08;15.40;;;14.10;;
1436;SDS011;712;51.026;13.792;2022-08-19T12:37:36;13.25;;;12.15;;
1436;SDS011;712;51.026;13.792;2022-08-19T12:40:01;13.37;;;12.27;;
1436;SDS011;712;51.026;13.792;2022-08-19T12:42:27;16.67;;;15.27;;
1436;SDS011;712;51.026;13.792;2022-08-19T12:44:53;14.80;;;13.50;;
1436;SDS011;712;51.026;13.792;2022-08-19T12:47:18;14.93;;;13.73;;
1436;SDS011;712;51.026;13.792;2022-08-19T12:49:43;16.25;;;14.85;;
1436;SDS011;712;51.026;13.792;2022-08-19T12:52:09;19.63;;;17.83;;
1436;SDS011;712;51.026;13.792;2022-08-19T12:54:35;16.90;;;15.30;;
1436;SDS011;712;51.026;13.792;2022-08-19T12:57:04;18.97;;;17.17;;
1436;SDS011;712;51.026;13.792;2022-08-19T12:59:29;17.20;;;15.70;;
1436;SDS011;712;51.026;13.792;2022-08-19T13:01:54;17.10;;;15.50;;
1436;SDS011;712;51.026;13.792;2022-08-19T13:04:19;15.93;;;14.53;;
1436;SDS011;712;51.026;13.792;2022-08-19T13:06:45;15.32;;;13.93;;
1436;SDS011;712;51.026;13.792;2022-08-19T13:09:10;16.90;;;15.40;;
1436;SDS011;712;51.026;13.792;2022-08-19T13:11:36;16.37;;;14.97;;
1436;SDS011;712;51.026;13.792;2022-08-19T13:14:01;17.00;;;15.40;;
1436;SDS011;712;51.026;13.792;2022-08-19T13:16:27;17.30;;;15.80;;
1436;SDS011;712;51.026;13.792;2022-08-19T13:18:53;17.80;;;16.30;;
1436;SDS011;712;51.026;13.792;2022-08-19T13:21:18;17.23;;;15.50;;
1436;SDS011;712;51.026;13.792;2022-08-19T13:23:44;16.20;;;14.80;;
1436;SDS011;712;51.026;13.792;2022-08-19T13:26:10;15.30;;;13.90;;
1436;SDS011;712;51.026;13.792;2022-08-19T13:28:36;17.80;;;16.10;;
1436;SDS011;712;51.026;13.792;2022-08-19T13:31:21;16.27;;;14.88;;
1436;SDS011;712;51.026;13.792;2022-08-19T13:34:05;18.60;;;17.10;;
1436;SDS011;712;51.026;13.792;2022-08-19T13:36:31;19.77;;;17.77;;
1436;SDS011;712;51.026;13.792;2022-08-19T13:38:56;17.20;;;15.65;;
1436;SDS011;712;51.026;13.792;2022-08-19T13:41:21;18.00;;;16.40;;
1436;SDS011;712;51.026;13.792;2022-08-19T13:43:46;17.93;;;16.23;;
1436;SDS011;712;51.026;13.792;2022-08-19T13:46:13;19.92;;;17.92;;
1436;SDS011;712;51.026;13.792;2022-08-19T13:48:39;19.00;;;17.23;;
1436;SDS011;712;51.026;13.792;2022-08-19T13:51:04;19.90;;;18.10;;
1436;SDS011;712;51.026;13.792;2022-08-19T13:53:29;19.38;;;17.67;;
1436;SDS011;712;51.026;13.792;2022-08-19T13:55:55;18.73;;;16.92;;
1436;SDS011;712;51.026;13.792;2022-08-19T13:58:21;19.27;;;17.47;;
1436;SDS011;712;51.026;13.792;2022-08-19T14:00:47;20.00;;;18.20;;
1436;SDS011;712;51.026;13.792;2022-08-19T14:03:13;17.00;;;15.50;;
1436;SDS011;712;51.026;13.792;2022-08-19T14:05:38;19.33;;;17.63;;
1436;SDS011;712;51.026;13.792;2022-08-19T14:08:04;22.17;;;20.07;;
1436;SDS011;712;51.026;13.792;2022-08-19T14:10:29;23.30;;;21.10;;
1436;SDS011;712;51.026;13.792;2022-08-19T14:12:57;21.58;;;19.48;;
1436;SDS011;712;51.026;13.792;2022-08-19T14:15:23;22.13;;;20.02;;
1436;SDS011;712;51.026;13.792;2022-08-19T14:17:48;18.77;;;16.98;;
1436;SDS011;712;51.026;13.792;2022-08-19T14:20:14;22.83;;;20.63;;
1436;SDS011;712;51.026;13.792;2022-08-19T14:22:40;20.53;;;18.63;;
1436;SDS011;712;51.026;13.792;2022-08-19T14:25:07;19.67;;;17.88;;
1436;SDS011;712;51.026;13.792;2022-08-19T14:27:33;18.60;;;16.80;;
1436;SDS011;712;51.026;13.792;2022-08-19T14:29:58;22.93;;;20.83;;
1436;SDS011;712;51.026;13.792;2022-08-19T14:32:24;26.10;;;23.60;;
1436;SDS011;712;51.026;13.792;2022-08-19T14:34:51;22.52;;;20.40;;
1436;SDS011;712;51.026;13.792;2022-08-19T14:37:17;23.67;;;21.30;;
1436;SDS011;712;51.026;13.792;2022-08-19T14:39:42;19.40;;;17.60;;
1436;SDS011;712;51.026;13.792;2022-08-19T14:42:08;28.55;;;25.55;;
1436;SDS011;712;51.026;13.792;2022-08-19T14:44:33;28.10;;;25.30;;
1436;SDS011;712;51.026;13.792;2022-08-19T14:46:59;25.87;;;23.17;;
1436;SDS011;712;51.026;13.792;2022-08-19T14:49:24;25.80;;;23.10;;
1436;SDS011;712;51.026;13.792;2022-08-19T14:51:49;25.08;;;22.48;;
1436;SDS011;712;51.026;13.792;2022-08-19T14:54:14;24.55;;;22.15;;
1436;SDS011;712;51.026;13.792;2022-08-19T14:56:39;24.57;;;22.17;;